sensor_id;sensor_type;location;lat;lon;timestamp;P1;durP1;ratioP1;P2;durP2;ratioP2
46643;SDS011;32371;51.032;5.816;2022-08-26T00:00:40;14.77;;;6.80;;
46643;SDS011;32371;51.032;5.816;2022-08-26T00:03:05;14.93;;;6.95;;
46643;SDS011;32371;51.032;5.816;2022-08-26T00:05:31;15.73;;;8.00;;
46643;SDS011;32371;51.032;5.816;2022-08-26T00:07:56;13.40;;;6.03;;
46643;SDS011;32371;51.032;5.816;2022-08-26T00:10:22;13.60;;;6.25;;
46643;SDS011;32371;51.032;5.816;2022-08-26T00:12:48;15.68;;;6.47;;
46643;SDS011;32371;51.032;5.816;2022-08-26T00:15:15;17.38;;;6.35;;
46643;SDS011;32371;51.032;5.816;2022-08-26T00:17:43;11.77;;;6.28;;
46643;SDS011;32371;51.032;5.816;2022-08-26T00:20:08;12.20;;;5.80;;
46643;SDS011;32371;51.032;5.816;2022-08-26T00:22:35;9.02;;;5.65;;
46643;SDS011;32371;51.032;5.816;2022-08-26T00:25:01;16.92;;;6.63;;
46643;SDS011;32371;51.032;5.816;2022-08-26T00:27:26;11.70;;;6.85;;
46643;SDS011;32371;51.032;5.816;2022-08-26T00:29:52;12.40;;;5.90;;
46643;SDS011;32371;51.032;5.816;2022-08-26T00:32:17;10.43;;;5.68;;
46643;SDS011;32371;51.032;5.816;2022-08-26T00:34:42;9.30;;;5.70;;
46643;SDS011;32371;51.032;5.816;2022-08-26T00:37:08;9.10;;;5.65;;
46643;SDS011;32371;51.032;5.816;2022-08-26T00:39:34;11.75;;;5.63;;
46643;SDS011;32371;51.032;5.816;2022-08-26T00:41:59;10.27;;;4.82;;
46643;SDS011;32371;51.032;5.816;2022-08-26T00:44:25;15.75;;;6.18;;
46643;SDS011;32371;51.032;5.816;2022-08-26T00:46:52;7.30;;;4.35;;
46643;SDS011;32371;51.032;5.816;2022-08-26T00:49:27;10.20;;;4.50;;
46643;SDS011;32371;51.032;5.816;2022-08-26T00:52:06;13.73;;;4.30;;
46643;SDS011;32371;51.032;5.816;2022-08-26T00:54:34;7.38;;;4.28;;
46643;SDS011;32371;51.032;5.816;2022-08-26T00:57:05;8.05;;;3.80;;
46643;SDS011;32371;51.032;5.816;2022-08-26T00:59:34;12.00;;;4.40;;
46643;SDS011;32371;51.032;5.816;2022-08-26T01:02:00;12.43;;;4.78;;
46643;SDS011;32371;51.032;5.816;2022-08-26T01:04:25;9.38;;;4.15;;
46643;SDS011;32371;51.032;5.816;2022-08-26T01:06:51;7.50;;;4.53;;
46643;SDS011;32371;51.032;5.816;2022-08-26T01:09:18;10.20;;;3.65;;
46643;SDS011;32371;51.032;5.816;2022-08-26T01:11:44;9.35;;;3.38;;
46643;SDS011;32371;51.032;5.816;2022-08-26T01:14:11;10.48;;;3.50;;
46643;SDS011;32371;51.032;5.816;2022-08-26T01:16:37;7.45;;;3.65;;
46643;SDS011;32371;51.032;5.816;2022-08-26T01:19:37;5.40;;;3.08;;
46643;SDS011;32371;51.032;5.816;2022-08-26T01:22:22;6.65;;;2.50;;
46643;SDS011;32371;51.032;5.816;2022-08-26T01:25:09;6.60;;;3.15;;
46643;SDS011;32371;51.032;5.816;2022-08-26T01:27:35;9.90;;;3.45;;
46643;SDS011;32371;51.032;5.816;2022-08-26T01:30:00;5.32;;;3.03;;
46643;SDS011;32371;51.032;5.816;2022-08-26T01:32:29;8.32;;;3.00;;
46643;SDS011;32371;51.032;5.816;2022-08-26T01:34:56;5.68;;;2.92;;
46643;SDS011;32371;51.032;5.816;2022-08-26T01:37:22;6.38;;;2.90;;
46643;SDS011;32371;51.032;5.816;2022-08-26T01:39:51;5.88;;;2.78;;
46643;SDS011;32371;51.032;5.816;2022-08-26T01:42:19;7.30;;;3.45;;
46643;SDS011;32371;51.032;5.816;2022-08-26T01:45:00;6.90;;;3.35;;
46643;SDS011;32371;51.032;5.816;2022-08-26T01:47:30;9.18;;;3.42;;
46643;SDS011;32371;51.032;5.816;2022-08-26T01:49:56;5.88;;;2.58;;
46643;SDS011;32371;51.032;5.816;2022-08-26T01:52:23;5.78;;;2.53;;
46643;SDS011;32371;51.032;5.816;2022-08-26T01:54:50;6.13;;;2.97;;
46643;SDS011;32371;51.032;5.816;2022-08-26T01:57:17;8.50;;;3.25;;
46643;SDS011;32371;51.032;5.816;2022-08-26T01:59:43;5.03;;;2.17;;
46643;SDS011;32371;51.032;5.816;2022-08-26T02:02:08;4.65;;;2.22;;
46643;SDS011;32371;51.032;5.816;2022-08-26T02:04:38;6.55;;;2.30;;
46643;SDS011;32371;51.032;5.816;2022-08-26T02:07:07;7.65;;;2.72;;
46643;SDS011;32371;51.032;5.816;2022-08-26T02:09:38;5.90;;;2.53;;
46643;SDS011;32371;51.032;5.816;2022-08-26T02:12:04;4.93;;;2.92;;
46643;SDS011;32371;51.032;5.816;2022-08-26T02:14:36;7.50;;;2.38;;
46643;SDS011;32371;51.032;5.816;2022-08-26T02:17:03;9.45;;;2.58;;
46643;SDS011;32371;51.032;5.816;2022-08-26T02:19:32;6.40;;;3.35;;
46643;SDS011;32371;51.032;5.816;2022-08-26T02:22:03;7.90;;;2.58;;
46643;SDS011;32371;51.032;5.816;2022-08-26T02:24:44;11.27;;;3.42;;
46643;SDS011;32371;51.032;5.816;2022-08-26T02:27:24;5.40;;;2.83;;
46643;SDS011;32371;51.032;5.816;2022-08-26T02:29:56;10.10;;;2.80;;
46643;SDS011;32371;51.032;5.816;2022-08-26T02:32:33;9.13;;;2.88;;
46643;SDS011;32371;51.032;5.816;2022-08-26T02:34:58;6.85;;;2.65;;
46643;SDS011;32371;51.032;5.816;2022-08-26T02:37:26;9.38;;;2.97;;
46643;SDS011;32371;51.032;5.816;2022-08-26T02:39:53;5.97;;;2.60;;
46643;SDS011;32371;51.032;5.816;2022-08-26T02:42:18;5.32;;;2.95;;
46643;SDS011;32371;51.032;5.816;2022-08-26T02:44:43;4.93;;;2.28;;
46643;SDS011;32371;51.032;5.816;2022-08-26T02:47:09;6.95;;;2.08;;
46643;SDS011;32371;51.032;5.816;2022-08-26T02:49:37;9.68;;;2.15;;
46643;SDS011;32371;51.032;5.816;2022-08-26T02:52:03;5.72;;;2.13;;
46643;SDS011;32371;51.032;5.816;2022-08-26T02:54:29;4.13;;;2.75;;
46643;SDS011;32371;51.032;5.816;2022-08-26T02:56:54;2.33;;;2.05;;
46643;SDS011;32371;51.032;5.816;2022-08-26T02:59:20;7.70;;;2.50;;
46643;SDS011;32371;51.032;5.816;2022-08-26T03:01:45;9.02;;;2.28;;
46643;SDS011;32371;51.032;5.816;2022-08-26T03:04:13;4.90;;;2.28;;
46643;SDS011;32371;51.032;5.816;2022-08-26T03:06:38;6.40;;;2.55;;
46643;SDS011;32371;51.032;5.816;2022-08-26T03:09:04;5.38;;;2.20;;
46643;SDS011;32371;51.032;5.816;2022-08-26T03:11:30;9.60;;;2.22;;
46643;SDS011;32371;51.032;5.816;2022-08-26T03:13:56;9.35;;;2.40;;
46643;SDS011;32371;51.032;5.816;2022-08-26T03:16:21;8.55;;;2.30;;
46643;SDS011;32371;51.032;5.816;2022-08-26T03:18:46;5.28;;;2.53;;
46643;SDS011;32371;51.032;5.816;2022-08-26T03:21:14;7.50;;;2.78;;
46643;SDS011;32371;51.032;5.816;2022-08-26T03:23:41;5.50;;;2.70;;
46643;SDS011;32371;51.032;5.816;2022-08-26T03:26:08;8.55;;;2.13;;
46643;SDS011;32371;51.032;5.816;2022-08-26T03:28:34;4.22;;;2.20;;
46643;SDS011;32371;51.032;5.816;2022-08-26T03:31:00;5.38;;;2.03;;
46643;SDS011;32371;51.032;5.816;2022-08-26T03:33:25;10.95;;;2.60;;
46643;SDS011;32371;51.032;5.816;2022-08-26T03:35:51;5.00;;;2.33;;
46643;SDS011;32371;51.032;5.816;2022-08-26T03:38:21;4.25;;;2.17;;
46643;SDS011;32371;51.032;5.816;2022-08-26T03:40:47;6.13;;;2.13;;
46643;SDS011;32371;51.032;5.816;2022-08-26T03:43:13;6.40;;;1.92;;
46643;SDS011;32371;51.032;5.816;2022-08-26T03:45:40;6.65;;;1.80;;
46643;SDS011;32371;51.032;5.816;2022-08-26T03:48:05;13.18;;;2.38;;
46643;SDS011;32371;51.032;5.816;2022-08-26T03:50:31;4.90;;;1.83;;
46643;SDS011;32371;51.032;5.816;2022-08-26T03:52:57;8.70;;;2.22;;
46643;SDS011;32371;51.032;5.816;2022-08-26T03:55:24;6.32;;;2.17;;
46643;SDS011;32371;51.032;5.816;2022-08-26T03:57:51;5.50;;;1.70;;
46643;SDS011;32371;51.032;5.816;2022-08-26T04:00:16;5.32;;;1.73;;
46643;SDS011;32371;51.032;5.816;2022-08-26T04:02:43;5.68;;;2.00;;
46643;SDS011;32371;51.032;5.816;2022-08-26T04:05:11;3.38;;;2.13;;
46643;SDS011;32371;51.032;5.816;2022-08-26T04:07:37;13.15;;;2.22;;
46643;SDS011;32371;51.032;5.816;2022-08-26T04:10:04;5.07;;;1.90;;
46643;SDS011;32371;51.032;5.816;2022-08-26T04:12:30;5.63;;;2.53;;
46643;SDS011;32371;51.032;5.816;2022-08-26T04:14:55;4.35;;;2.10;;
46643;SDS011;32371;51.032;5.816;2022-08-26T04:17:21;5.10;;;1.90;;
46643;SDS011;32371;51.032;5.816;2022-08-26T04:19:50;7.53;;;1.88;;
46643;SDS011;32371;51.032;5.816;2022-08-26T04:22:17;3.80;;;2.03;;
46643;SDS011;32371;51.032;5.816;2022-08-26T04:24:42;4.85;;;1.80;;
46643;SDS011;32371;51.032;5.816;2022-08-26T04:27:08;8.70;;;2.22;;
46643;SDS011;32371;51.032;5.816;2022-08-26T04:29:34;6.05;;;2.38;;
46643;SDS011;32371;51.032;5.816;2022-08-26T04:32:00;5.57;;;2.00;;
46643;SDS011;32371;51.032;5.816;2022-08-26T04:34:27;3.13;;;1.88;;
46643;SDS011;32371;51.032;5.816;2022-08-26T04:36:52;6.00;;;1.75;;
46643;SDS011;32371;51.032;5.816;2022-08-26T04:39:18;7.93;;;1.88;;
46643;SDS011;32371;51.032;5.816;2022-08-26T04:41:45;6.07;;;1.95;;
46643;SDS011;32371;51.032;5.816;2022-08-26T04:44:11;2.42;;;1.52;;
46643;SDS011;32371;51.032;5.816;2022-08-26T04:46:36;4.25;;;1.80;;
46643;SDS011;32371;51.032;5.816;2022-08-26T04:49:02;4.38;;;1.85;;
46643;SDS011;32371;51.032;5.816;2022-08-26T04:51:30;4.35;;;1.92;;
46643;SDS011;32371;51.032;5.816;2022-08-26T04:53:57;4.78;;;2.03;;
46643;SDS011;32371;51.032;5.816;2022-08-26T04:56:27;10.50;;;2.05;;
46643;SDS011;32371;51.032;5.816;2022-08-26T04:58:54;6.07;;;1.50;;
46643;SDS011;32371;51.032;5.816;2022-08-26T05:01:20;6.47;;;2.00;;
46643;SDS011;32371;51.032;5.816;2022-08-26T05:03:46;4.00;;;1.63;;
46643;SDS011;32371;51.032;5.816;2022-08-26T05:06:12;3.17;;;1.90;;
46643;SDS011;32371;51.032;5.816;2022-08-26T05:08:38;2.47;;;1.77;;
46643;SDS011;32371;51.032;5.816;2022-08-26T05:11:04;4.38;;;2.08;;
46643;SDS011;32371;51.032;5.816;2022-08-26T05:13:31;5.30;;;2.10;;
46643;SDS011;32371;51.032;5.816;2022-08-26T05:16:00;5.68;;;2.17;;
46643;SDS011;32371;51.032;5.816;2022-08-26T05:18:26;4.93;;;1.67;;
46643;SDS011;32371;51.032;5.816;2022-08-26T05:20:54;3.88;;;2.13;;
46643;SDS011;32371;51.032;5.816;2022-08-26T05:23:20;4.82;;;1.80;;
46643;SDS011;32371;51.032;5.816;2022-08-26T05:25:47;3.80;;;1.80;;
46643;SDS011;32371;51.032;5.816;2022-08-26T05:28:14;7.85;;;1.67;;
46643;SDS011;32371;51.032;5.816;2022-08-26T05:30:42;2.95;;;1.73;;
46643;SDS011;32371;51.032;5.816;2022-08-26T05:33:08;3.60;;;1.80;;
46643;SDS011;32371;51.032;5.816;2022-08-26T05:35:34;3.15;;;2.38;;
46643;SDS011;32371;51.032;5.816;2022-08-26T05:38:02;1.75;;;1.40;;
46643;SDS011;32371;51.032;5.816;2022-08-26T05:40:32;6.03;;;1.70;;
46643;SDS011;32371;51.032;5.816;2022-08-26T05:42:58;4.72;;;1.30;;
46643;SDS011;32371;51.032;5.816;2022-08-26T05:45:24;3.38;;;1.20;;
46643;SDS011;32371;51.032;5.816;2022-08-26T05:47:50;3.05;;;1.27;;
46643;SDS011;32371;51.032;5.816;2022-08-26T05:56:04;5.78;;;1.50;;
46643;SDS011;32371;51.032;5.816;2022-08-26T05:58:32;4.68;;;1.50;;
46643;SDS011;32371;51.032;5.816;2022-08-26T06:01:02;2.83;;;1.60;;
46643;SDS011;32371;51.032;5.816;2022-08-26T06:03:40;2.30;;;1.30;;
46643;SDS011;32371;51.032;5.816;2022-08-26T06:06:09;3.13;;;1.50;;
46643;SDS011;32371;51.032;5.816;2022-08-26T06:08:39;5.70;;;2.00;;
46643;SDS011;32371;51.032;5.816;2022-08-26T06:11:06;4.32;;;1.42;;
46643;SDS011;32371;51.032;5.816;2022-08-26T06:13:34;4.20;;;1.10;;
46643;SDS011;32371;51.032;5.816;2022-08-26T06:16:02;4.25;;;1.30;;
46643;SDS011;32371;51.032;5.816;2022-08-26T06:18:29;3.30;;;1.40;;
46643;SDS011;32371;51.032;5.816;2022-08-26T06:20:58;2.10;;;1.65;;
46643;SDS011;32371;51.032;5.816;2022-08-26T06:23:26;4.10;;;1.35;;
46643;SDS011;32371;51.032;5.816;2022-08-26T06:26:12;4.22;;;1.30;;
46643;SDS011;32371;51.032;5.816;2022-08-26T06:28:39;3.47;;;1.30;;
46643;SDS011;32371;51.032;5.816;2022-08-26T06:31:05;4.80;;;1.10;;
46643;SDS011;32371;51.032;5.816;2022-08-26T06:33:30;4.32;;;1.27;;
46643;SDS011;32371;51.032;5.816;2022-08-26T06:35:56;6.20;;;1.10;;
46643;SDS011;32371;51.032;5.816;2022-08-26T06:38:22;3.05;;;1.40;;
46643;SDS011;32371;51.032;5.816;2022-08-26T06:40:49;2.78;;;0.88;;
46643;SDS011;32371;51.032;5.816;2022-08-26T06:43:16;1.80;;;1.00;;
46643;SDS011;32371;51.032;5.816;2022-08-26T06:45:43;3.75;;;1.40;;
46643;SDS011;32371;51.032;5.816;2022-08-26T06:48:10;4.05;;;1.20;;
46643;SDS011;32371;51.032;5.816;2022-08-26T06:50:37;5.80;;;1.52;;
46643;SDS011;32371;51.032;5.816;2022-08-26T06:53:02;3.58;;;0.95;;
46643;SDS011;32371;51.032;5.816;2022-08-26T06:55:27;1.58;;;1.00;;
46643;SDS011;32371;51.032;5.816;2022-08-26T06:57:54;5.88;;;1.33;;
46643;SDS011;32371;51.032;5.816;2022-08-26T07:00:20;3.47;;;1.23;;
46643;SDS011;32371;51.032;5.816;2022-08-26T07:02:46;2.67;;;0.90;;
46643;SDS011;32371;51.032;5.816;2022-08-26T07:05:12;1.98;;;0.77;;
46643;SDS011;32371;51.032;5.816;2022-08-26T07:07:37;4.65;;;1.10;;
46643;SDS011;32371;51.032;5.816;2022-08-26T07:10:03;7.97;;;1.38;;
46643;SDS011;32371;51.032;5.816;2022-08-26T07:12:29;3.47;;;0.98;;
46643;SDS011;32371;51.032;5.816;2022-08-26T07:14:55;4.13;;;1.10;;
46643;SDS011;32371;51.032;5.816;2022-08-26T07:17:20;2.45;;;0.90;;
46643;SDS011;32371;51.032;5.816;2022-08-26T07:19:46;4.30;;;1.08;;
46643;SDS011;32371;51.032;5.816;2022-08-26T07:22:12;9.77;;;2.03;;
46643;SDS011;32371;51.032;5.816;2022-08-26T07:24:38;4.75;;;1.15;;
46643;SDS011;32371;51.032;5.816;2022-08-26T07:27:08;11.73;;;2.10;;
46643;SDS011;32371;51.032;5.816;2022-08-26T07:29:36;5.35;;;1.10;;
46643;SDS011;32371;51.032;5.816;2022-08-26T07:32:03;1.65;;;1.00;;
46643;SDS011;32371;51.032;5.816;2022-08-26T07:34:29;5.18;;;0.80;;
46643;SDS011;32371;51.032;5.816;2022-08-26T07:36:56;2.92;;;1.38;;
46643;SDS011;32371;51.032;5.816;2022-08-26T07:39:21;4.97;;;0.80;;
46643;SDS011;32371;51.032;5.816;2022-08-26T07:41:47;4.55;;;1.17;;
46643;SDS011;32371;51.032;5.816;2022-08-26T07:44:13;3.95;;;1.02;;
46643;SDS011;32371;51.032;5.816;2022-08-26T07:46:39;4.07;;;1.25;;
46643;SDS011;32371;51.032;5.816;2022-08-26T07:49:04;3.97;;;1.25;;
46643;SDS011;32371;51.032;5.816;2022-08-26T07:51:30;6.03;;;1.13;;
46643;SDS011;32371;51.032;5.816;2022-08-26T07:53:56;3.70;;;1.05;;
46643;SDS011;32371;51.032;5.816;2022-08-26T07:56:22;5.82;;;1.20;;
46643;SDS011;32371;51.032;5.816;2022-08-26T07:58:47;4.22;;;0.90;;
46643;SDS011;32371;51.032;5.816;2022-08-26T08:01:13;3.60;;;1.17;;
46643;SDS011;32371;51.032;5.816;2022-08-26T08:03:39;7.97;;;1.23;;
46643;SDS011;32371;51.032;5.816;2022-08-26T08:06:08;5.95;;;1.35;;
46643;SDS011;32371;51.032;5.816;2022-08-26T08:08:34;4.75;;;1.27;;
46643;SDS011;32371;51.032;5.816;2022-08-26T08:11:02;5.57;;;1.05;;
46643;SDS011;32371;51.032;5.816;2022-08-26T08:13:31;3.23;;;1.07;;
46643;SDS011;32371;51.032;5.816;2022-08-26T08:15:56;3.85;;;1.00;;
46643;SDS011;32371;51.032;5.816;2022-08-26T08:18:22;2.97;;;1.48;;
46643;SDS011;32371;51.032;5.816;2022-08-26T08:20:47;2.90;;;1.05;;
46643;SDS011;32371;51.032;5.816;2022-08-26T08:23:13;1.92;;;0.90;;
46643;SDS011;32371;51.032;5.816;2022-08-26T08:25:39;3.08;;;0.80;;
46643;SDS011;32371;51.032;5.816;2022-08-26T08:28:05;2.83;;;1.20;;
46643;SDS011;32371;51.032;5.816;2022-08-26T08:30:30;2.70;;;1.17;;
46643;SDS011;32371;51.032;5.816;2022-08-26T08:32:56;5.47;;;0.82;;
46643;SDS011;32371;51.032;5.816;2022-08-26T08:35:21;2.55;;;0.60;;
46643;SDS011;32371;51.032;5.816;2022-08-26T08:37:48;2.80;;;1.10;;
46643;SDS011;32371;51.032;5.816;2022-08-26T08:40:19;2.92;;;1.25;;
46643;SDS011;32371;51.032;5.816;2022-08-26T08:45:21;3.80;;;0.90;;
46643;SDS011;32371;51.032;5.816;2022-08-26T08:47:55;2.47;;;0.90;;
46643;SDS011;32371;51.032;5.816;2022-08-26T08:50:27;4.15;;;0.52;;
46643;SDS011;32371;51.032;5.816;2022-08-26T09:01:03;3.70;;;0.60;;
46643;SDS011;32371;51.032;5.816;2022-08-26T09:03:34;1.60;;;0.60;;
46643;SDS011;32371;51.032;5.816;2022-08-26T09:06:09;3.90;;;1.05;;
46643;SDS011;32371;51.032;5.816;2022-08-26T09:08:41;3.33;;;0.80;;
46643;SDS011;32371;51.032;5.816;2022-08-26T09:11:07;3.05;;;1.58;;
46643;SDS011;32371;51.032;5.816;2022-08-26T09:13:33;1.63;;;0.60;;
46643;SDS011;32371;51.032;5.816;2022-08-26T09:16:09;3.85;;;0.60;;
46643;SDS011;32371;51.032;5.816;2022-08-26T09:21:12;2.53;;;0.70;;
46643;SDS011;32371;51.032;5.816;2022-08-26T09:23:41;2.38;;;0.70;;
46643;SDS011;32371;51.032;5.816;2022-08-26T09:28:44;2.75;;;1.55;;
46643;SDS011;32371;51.032;5.816;2022-08-26T09:31:18;2.53;;;1.05;;
46643;SDS011;32371;51.032;5.816;2022-08-26T09:33:44;6.72;;;1.05;;
46643;SDS011;32371;51.032;5.816;2022-08-26T09:36:11;4.72;;;1.20;;
46643;SDS011;32371;51.032;5.816;2022-08-26T09:38:50;3.38;;;0.88;;
46643;SDS011;32371;51.032;5.816;2022-08-26T09:41:22;3.10;;;0.60;;
46643;SDS011;32371;51.032;5.816;2022-08-26T09:44:15;1.67;;;0.63;;
46643;SDS011;32371;51.032;5.816;2022-08-26T09:46:50;2.88;;;0.57;;
46643;SDS011;32371;51.032;5.816;2022-08-26T09:54:44;2.95;;;0.57;;
46643;SDS011;32371;51.032;5.816;2022-08-26T09:59:53;1.60;;;0.95;;
46643;SDS011;32371;51.032;5.816;2022-08-26T10:04:57;4.07;;;1.00;;
46643;SDS011;32371;51.032;5.816;2022-08-26T10:07:37;1.95;;;0.60;;
46643;SDS011;32371;51.032;5.816;2022-08-26T10:13:05;6.30;;;0.80;;
46643;SDS011;32371;51.032;5.816;2022-08-26T10:15:55;3.78;;;0.82;;
46643;SDS011;32371;51.032;5.816;2022-08-26T10:18:36;2.13;;;0.85;;
46643;SDS011;32371;51.032;5.816;2022-08-26T10:22:05;4.63;;;0.75;;
46643;SDS011;32371;51.032;5.816;2022-08-26T10:27:30;3.58;;;1.35;;
46643;SDS011;32371;51.032;5.816;2022-08-26T10:30:09;4.50;;;0.88;;
46643;SDS011;32371;51.032;5.816;2022-08-26T10:32:39;4.07;;;1.30;;
46643;SDS011;32371;51.032;5.816;2022-08-26T10:35:07;6.53;;;0.80;;
46643;SDS011;32371;51.032;5.816;2022-08-26T10:37:35;1.08;;;0.40;;
46643;SDS011;32371;51.032;5.816;2022-08-26T10:42:32;2.17;;;0.50;;
46643;SDS011;32371;51.032;5.816;2022-08-26T10:45:04;3.13;;;0.45;;
46643;SDS011;32371;51.032;5.816;2022-08-26T10:47:36;3.72;;;0.60;;
46643;SDS011;32371;51.032;5.816;2022-08-26T10:50:07;4.95;;;1.23;;
46643;SDS011;32371;51.032;5.816;2022-08-26T10:55:20;4.22;;;0.70;;
46643;SDS011;32371;51.032;5.816;2022-08-26T11:00:45;5.35;;;0.73;;
46643;SDS011;32371;51.032;5.816;2022-08-26T11:03:45;1.90;;;0.60;;
46643;SDS011;32371;51.032;5.816;2022-08-26T11:08:53;4.60;;;0.73;;
46643;SDS011;32371;51.032;5.816;2022-08-26T11:14:08;2.83;;;0.80;;
46643;SDS011;32371;51.032;5.816;2022-08-26T11:16:40;2.70;;;0.60;;
46643;SDS011;32371;51.032;5.816;2022-08-26T11:19:08;2.80;;;0.70;;
46643;SDS011;32371;51.032;5.816;2022-08-26T11:24:07;0.98;;;0.47;;
46643;SDS011;32371;51.032;5.816;2022-08-26T11:26:33;1.70;;;0.50;;
46643;SDS011;32371;51.032;5.816;2022-08-26T11:29:00;4.00;;;0.50;;
46643;SDS011;32371;51.032;5.816;2022-08-26T11:33:55;4.60;;;0.30;;
46643;SDS011;32371;51.032;5.816;2022-08-26T11:38:59;2.67;;;0.50;;
46643;SDS011;32371;51.032;5.816;2022-08-26T11:41:25;4.40;;;0.35;;
46643;SDS011;32371;51.032;5.816;2022-08-26T11:43:54;8.70;;;0.88;;
46643;SDS011;32371;51.032;5.816;2022-08-26T11:46:24;3.30;;;1.00;;
46643;SDS011;32371;51.032;5.816;2022-08-26T11:48:52;2.35;;;0.60;;
46643;SDS011;32371;51.032;5.816;2022-08-26T11:51:24;5.47;;;0.98;;
46643;SDS011;32371;51.032;5.816;2022-08-26T11:53:50;2.97;;;0.50;;
46643;SDS011;32371;51.032;5.816;2022-08-26T11:58:41;3.47;;;1.20;;
46643;SDS011;32371;51.032;5.816;2022-08-26T12:01:08;6.05;;;1.15;;
46643;SDS011;32371;51.032;5.816;2022-08-26T12:03:38;6.15;;;1.40;;
46643;SDS011;32371;51.032;5.816;2022-08-26T12:06:24;3.63;;;1.00;;
46643;SDS011;32371;51.032;5.816;2022-08-26T12:08:52;3.70;;;0.80;;
46643;SDS011;32371;51.032;5.816;2022-08-26T12:11:24;3.45;;;1.38;;
46643;SDS011;32371;51.032;5.816;2022-08-26T12:16:43;3.15;;;1.08;;
46643;SDS011;32371;51.032;5.816;2022-08-26T12:19:29;0.95;;;0.82;;
46643;SDS011;32371;51.032;5.816;2022-08-26T12:22:08;3.38;;;0.85;;
46643;SDS011;32371;51.032;5.816;2022-08-26T12:24:50;5.35;;;1.90;;
46643;SDS011;32371;51.032;5.816;2022-08-26T12:27:22;4.63;;;1.00;;
46643;SDS011;32371;51.032;5.816;2022-08-26T12:29:59;6.73;;;1.03;;
46643;SDS011;32371;51.032;5.816;2022-08-26T12:32:32;6.60;;;1.60;;
46643;SDS011;32371;51.032;5.816;2022-08-26T12:34:59;2.00;;;1.10;;
46643;SDS011;32371;51.032;5.816;2022-08-26T12:37:30;3.97;;;1.63;;
46643;SDS011;32371;51.032;5.816;2022-08-26T12:40:15;3.05;;;1.58;;
46643;SDS011;32371;51.032;5.816;2022-08-26T12:43:02;9.30;;;1.33;;
46643;SDS011;32371;51.032;5.816;2022-08-26T12:45:29;3.58;;;1.58;;
46643;SDS011;32371;51.032;5.816;2022-08-26T12:48:11;4.03;;;1.10;;
46643;SDS011;32371;51.032;5.816;2022-08-26T12:50:39;2.45;;;1.13;;
46643;SDS011;32371;51.032;5.816;2022-08-26T13:00:44;5.55;;;1.52;;
46643;SDS011;32371;51.032;5.816;2022-08-26T13:03:30;3.42;;;1.17;;
46643;SDS011;32371;51.032;5.816;2022-08-26T13:06:09;4.45;;;1.35;;
46643;SDS011;32371;51.032;5.816;2022-08-26T13:08:34;5.07;;;1.13;;
46643;SDS011;32371;51.032;5.816;2022-08-26T13:11:06;3.33;;;1.23;;
46643;SDS011;32371;51.032;5.816;2022-08-26T13:13:34;6.05;;;1.08;;
46643;SDS011;32371;51.032;5.816;2022-08-26T13:16:03;3.00;;;0.98;;
46643;SDS011;32371;51.032;5.816;2022-08-26T13:18:28;2.00;;;0.73;;
46643;SDS011;32371;51.032;5.816;2022-08-26T13:20:57;4.85;;;1.10;;
46643;SDS011;32371;51.032;5.816;2022-08-26T13:23:22;3.90;;;0.77;;
46643;SDS011;32371;51.032;5.816;2022-08-26T13:25:48;1.95;;;1.25;;
46643;SDS011;32371;51.032;5.816;2022-08-26T13:28:14;4.40;;;1.48;;
46643;SDS011;32371;51.032;5.816;2022-08-26T13:30:40;5.30;;;1.05;;
46643;SDS011;32371;51.032;5.816;2022-08-26T13:33:08;8.93;;;2.03;;
46643;SDS011;32371;51.032;5.816;2022-08-26T13:35:34;2.72;;;1.00;;
46643;SDS011;32371;51.032;5.816;2022-08-26T13:37:59;6.53;;;1.00;;
46643;SDS011;32371;51.032;5.816;2022-08-26T13:40:25;5.03;;;1.20;;
46643;SDS011;32371;51.032;5.816;2022-08-26T13:42:51;3.28;;;1.48;;
46643;SDS011;32371;51.032;5.816;2022-08-26T13:45:16;3.97;;;1.40;;
46643;SDS011;32371;51.032;5.816;2022-08-26T13:47:42;6.82;;;2.05;;
46643;SDS011;32371;51.032;5.816;2022-08-26T13:50:08;1.27;;;0.80;;
46643;SDS011;32371;51.032;5.816;2022-08-26T13:52:34;3.72;;;0.85;;
46643;SDS011;32371;51.032;5.816;2022-08-26T13:54:59;3.03;;;1.05;;
46643;SDS011;32371;51.032;5.816;2022-08-26T13:57:24;4.15;;;1.00;;
46643;SDS011;32371;51.032;5.816;2022-08-26T13:59:52;3.10;;;1.13;;
46643;SDS011;32371;51.032;5.816;2022-08-26T14:02:19;5.07;;;1.38;;
46643;SDS011;32371;51.032;5.816;2022-08-26T14:04:45;4.80;;;1.15;;
46643;SDS011;32371;51.032;5.816;2022-08-26T14:07:10;2.85;;;1.02;;
46643;SDS011;32371;51.032;5.816;2022-08-26T14:09:36;3.13;;;1.08;;
46643;SDS011;32371;51.032;5.816;2022-08-26T14:12:01;3.90;;;1.33;;
46643;SDS011;32371;51.032;5.816;2022-08-26T14:14:27;4.32;;;1.08;;
46643;SDS011;32371;51.032;5.816;2022-08-26T14:16:52;5.97;;;0.90;;
46643;SDS011;32371;51.032;5.816;2022-08-26T14:19:17;5.63;;;1.02;;
46643;SDS011;32371;51.032;5.816;2022-08-26T14:21:43;4.45;;;1.17;;
46643;SDS011;32371;51.032;5.816;2022-08-26T14:24:08;3.67;;;1.00;;
46643;SDS011;32371;51.032;5.816;2022-08-26T14:26:34;7.95;;;1.00;;
46643;SDS011;32371;51.032;5.816;2022-08-26T14:29:00;2.10;;;1.10;;
46643;SDS011;32371;51.032;5.816;2022-08-26T14:31:27;1.95;;;0.82;;
46643;SDS011;32371;51.032;5.816;2022-08-26T14:33:59;2.05;;;1.52;;
46643;SDS011;32371;51.032;5.816;2022-08-26T14:36:29;6.35;;;1.55;;
46643;SDS011;32371;51.032;5.816;2022-08-26T14:38:57;4.63;;;1.05;;
46643;SDS011;32371;51.032;5.816;2022-08-26T14:41:29;5.70;;;1.83;;
46643;SDS011;32371;51.032;5.816;2022-08-26T14:44:05;2.92;;;0.93;;
46643;SDS011;32371;51.032;5.816;2022-08-26T14:46:32;4.60;;;1.27;;
46643;SDS011;32371;51.032;5.816;2022-08-26T14:48:59;3.35;;;1.35;;
46643;SDS011;32371;51.032;5.816;2022-08-26T14:51:25;7.85;;;1.85;;
46643;SDS011;32371;51.032;5.816;2022-08-26T14:53:51;10.15;;;1.42;;
46643;SDS011;32371;51.032;5.816;2022-08-26T14:56:36;3.97;;;1.55;;
46643;SDS011;32371;51.032;5.816;2022-08-26T14:59:04;7.28;;;1.30;;
46643;SDS011;32371;51.032;5.816;2022-08-26T15:01:29;4.32;;;1.10;;
46643;SDS011;32371;51.032;5.816;2022-08-26T15:03:56;6.03;;;1.13;;
46643;SDS011;32371;51.032;5.816;2022-08-26T15:06:22;7.28;;;0.95;;
46643;SDS011;32371;51.032;5.816;2022-08-26T15:08:48;6.55;;;1.13;;
46643;SDS011;32371;51.032;5.816;2022-08-26T15:11:13;1.73;;;0.73;;
46643;SDS011;32371;51.032;5.816;2022-08-26T15:13:43;4.65;;;1.52;;
46643;SDS011;32371;51.032;5.816;2022-08-26T15:16:09;4.18;;;1.17;;
46643;SDS011;32371;51.032;5.816;2022-08-26T15:18:34;4.80;;;1.00;;
46643;SDS011;32371;51.032;5.816;2022-08-26T15:21:01;5.85;;;0.90;;
46643;SDS011;32371;51.032;5.816;2022-08-26T15:23:27;5.03;;;0.77;;
46643;SDS011;32371;51.032;5.816;2022-08-26T15:25:52;4.70;;;0.77;;
46643;SDS011;32371;51.032;5.816;2022-08-26T15:28:18;4.03;;;0.98;;
46643;SDS011;32371;51.032;5.816;2022-08-26T15:30:43;3.53;;;0.85;;
46643;SDS011;32371;51.032;5.816;2022-08-26T15:33:09;4.38;;;0.50;;
46643;SDS011;32371;51.032;5.816;2022-08-26T15:35:35;3.65;;;0.82;;
46643;SDS011;32371;51.032;5.816;2022-08-26T15:38:01;3.55;;;0.75;;
46643;SDS011;32371;51.032;5.816;2022-08-26T15:40:26;6.50;;;0.88;;
46643;SDS011;32371;51.032;5.816;2022-08-26T15:42:52;3.55;;;1.10;;
46643;SDS011;32371;51.032;5.816;2022-08-26T15:45:17;2.20;;;0.52;;
46643;SDS011;32371;51.032;5.816;2022-08-26T15:47:43;4.35;;;0.50;;
46643;SDS011;32371;51.032;5.816;2022-08-26T15:50:08;4.95;;;0.93;;
46643;SDS011;32371;51.032;5.816;2022-08-26T15:52:34;2.30;;;0.60;;
46643;SDS011;32371;51.032;5.816;2022-08-26T15:55:02;2.42;;;0.57;;
46643;SDS011;32371;51.032;5.816;2022-08-26T15:57:28;3.85;;;0.63;;
46643;SDS011;32371;51.032;5.816;2022-08-26T15:59:53;3.83;;;0.68;;
46643;SDS011;32371;51.032;5.816;2022-08-26T16:02:18;1.23;;;0.60;;
46643;SDS011;32371;51.032;5.816;2022-08-26T16:04:44;6.28;;;0.70;;